createdAt,value
2022-11-16T00:01:02.745Z,3.20
2022-11-16T00:05:08.377Z,3.35
2022-11-16T00:10:08.691Z,4.18
2022-11-16T00:15:08.387Z,3.60
2022-11-16T00:20:08.119Z,3.42
2022-11-16T00:25:07.839Z,3.13
2022-11-16T00:30:08.534Z,3.20
2022-11-16T00:35:08.236Z,3.40
2022-11-16T00:40:07.978Z,3.22
2022-11-16T00:45:07.683Z,3.53
2022-11-16T00:50:08.374Z,3.40
2022-11-16T00:55:08.121Z,3.28
2022-11-16T01:00:07.794Z,3.53
2022-11-16T01:05:07.864Z,2.80
2022-11-16T01:10:08.588Z,3.58
2022-11-16T01:15:08.278Z,3.08
2022-11-16T01:20:14.669Z,3.15
2022-11-16T01:25:08.392Z,3.13
2022-11-16T01:30:08.081Z,3.38
2022-11-16T01:35:07.820Z,3.50
2022-11-16T01:40:08.548Z,3.65
2022-11-16T01:45:08.297Z,3.42
2022-11-16T01:50:07.975Z,4.00
2022-11-16T01:55:07.670Z,4.00
2022-11-16T02:00:08.417Z,4.60
2022-11-16T02:05:08.094Z,4.60
2022-11-16T02:10:17.800Z,0
2022-11-16T02:15:08.536Z,3.80
2022-11-16T02:20:08.264Z,4.07
2022-11-16T02:25:07.996Z,4.20
2022-11-16T02:30:07.706Z,4.07
2022-11-16T02:35:11.062Z,3.20
2022-11-16T02:40:11.282Z,4.00
2022-11-16T02:45:07.977Z,4.30
2022-11-16T02:50:07.661Z,3.70
2022-11-16T02:55:08.417Z,3.70
2022-11-16T03:00:08.118Z,4.68
2022-11-16T03:05:07.866Z,4.30
2022-11-16T03:10:08.587Z,4.50
2022-11-16T03:15:08.282Z,4.70
2022-11-16T03:20:07.998Z,5.00
2022-11-16T03:25:08.007Z,5.35
2022-11-16T03:30:07.704Z,4.75
2022-11-16T03:35:08.410Z,4.38
2022-11-16T03:40:08.117Z,4.80
2022-11-16T03:45:07.854Z,5.63
2022-11-16T03:50:08.569Z,5.55
2022-11-16T03:55:08.285Z,6.82
2022-11-16T04:00:08.011Z,5.70
2022-11-16T04:05:07.706Z,5.30
2022-11-16T04:10:08.407Z,4.75
2022-11-16T04:15:08.149Z,5.40
2022-11-16T04:20:07.879Z,5.90
2022-11-16T04:25:08.591Z,6.32
2022-11-16T04:30:08.361Z,6.03
2022-11-16T04:35:08.048Z,6.18
2022-11-16T04:40:07.784Z,5.65
2022-11-16T04:45:08.515Z,5.47
2022-11-16T04:50:08.221Z,4.93
2022-11-16T04:55:07.915Z,5.43
2022-11-16T05:00:08.681Z,5.45
2022-11-16T05:05:02.428Z,5.78
2022-11-16T05:10:02.271Z,4.60
2022-11-16T05:15:02.104Z,4.88
2022-11-16T05:20:01.808Z,3.55
2022-11-16T05:25:02.551Z,2.95
2022-11-16T05:30:02.599Z,2.15
2022-11-16T05:35:02.440Z,2.78
2022-11-16T05:40:02.255Z,2.33
2022-11-16T05:45:02.075Z,2.30
2022-11-16T05:50:01.939Z,2.40
2022-11-16T05:55:02.766Z,2.42
2022-11-16T06:00:02.589Z,2.03
2022-11-16T06:05:02.340Z,1.98
2022-11-16T06:10:02.149Z,1.73
2022-11-16T06:15:01.963Z,1.80
2022-11-16T06:20:01.699Z,1.45
2022-11-16T06:25:02.480Z,1.70
2022-11-16T06:30:02.297Z,1.67
2022-11-16T06:35:02.148Z,1.77
2022-11-16T06:40:01.965Z,1.50
2022-11-16T06:45:01.757Z,1.70
2022-11-16T06:50:02.564Z,1.60
2022-11-16T06:55:02.352Z,2.10
2022-11-16T07:00:02.270Z,1.90
2022-11-16T07:05:03.959Z,1.70
2022-11-16T07:10:02.124Z,1.90
2022-11-16T07:15:02.062Z,1.85
2022-11-16T07:20:02.131Z,2.10
2022-11-16T07:25:02.048Z,2.05
2022-11-16T07:30:01.970Z,2.08
2022-11-16T07:35:01.902Z,2.35
2022-11-16T07:40:02.727Z,2.30
2022-11-16T07:45:02.465Z,2.03
2022-11-16T07:50:02.281Z,2.40
2022-11-16T07:55:02.224Z,2.38
2022-11-16T08:00:01.953Z,2.22
2022-11-16T08:05:01.787Z,2.20
2022-11-16T08:10:02.598Z,2.00
2022-11-16T08:15:02.567Z,2.20
2022-11-16T08:20:02.406Z,2.35
2022-11-16T08:25:02.209Z,2.15
2022-11-16T08:30:02.062Z,2.50
2022-11-16T08:35:01.892Z,2.67
2022-11-16T08:40:02.757Z,2.50
2022-11-16T08:45:02.566Z,2.88
2022-11-16T08:50:02.537Z,2.80
2022-11-16T08:55:02.320Z,3.13
2022-11-16T09:00:02.195Z,2.67
2022-11-16T09:05:01.992Z,2.78
2022-11-16T09:10:01.944Z,2.83
2022-11-16T09:15:01.747Z,3.05
2022-11-16T09:20:02.587Z,2.35
2022-11-16T09:25:02.399Z,2.75
2022-11-16T09:30:02.253Z,2.40
2022-11-16T09:35:02.099Z,2.10
2022-11-16T09:40:01.944Z,2.40
2022-11-16T09:45:01.829Z,2.38
2022-11-16T09:50:06.710Z,2.10
2022-11-16T09:55:02.617Z,2.35
2022-11-16T10:00:02.651Z,2.90
2022-11-16T10:05:02.578Z,2.33
2022-11-16T10:10:02.509Z,2.22
2022-11-16T10:15:02.430Z,2.15
2022-11-16T10:20:08.228Z,2.17
2022-11-16T10:25:02.003Z,2.28
2022-11-16T10:30:01.816Z,2.70
2022-11-16T10:35:02.589Z,2.58
2022-11-16T10:40:02.408Z,2.10
2022-11-16T10:45:02.254Z,2.08
2022-11-16T10:50:02.033Z,1.95
2022-11-16T10:55:01.767Z,1.98
2022-11-16T11:00:02.540Z,1.70
2022-11-16T11:05:02.349Z,1.90
2022-11-16T11:10:02.183Z,1.75
2022-11-16T11:15:02.104Z,1.65
2022-11-16T11:20:01.945Z,1.70
2022-11-16T11:25:02.694Z,1.50
2022-11-16T11:30:02.525Z,1.75
2022-11-16T11:35:02.324Z,1.70
2022-11-16T11:40:02.810Z,1.38
2022-11-16T11:45:02.717Z,1.25
2022-11-16T11:50:02.531Z,1.42
2022-11-16T11:55:02.382Z,1.40
2022-11-16T12:00:02.394Z,1.63
2022-11-16T12:05:02.134Z,1.17
2022-11-16T12:10:01.979Z,1.58
2022-11-16T12:15:01.803Z,1.48
2022-11-16T12:20:02.658Z,1.83
2022-11-16T12:25:02.588Z,1.50
2022-11-16T12:30:02.521Z,1.13
2022-11-16T12:35:02.496Z,1.08
2022-11-16T12:40:12.544Z,0
2022-11-16T12:45:02.526Z,1.17
2022-11-16T12:50:02.444Z,1.40
2022-11-16T12:55:25.914Z,1.10
2022-11-16T13:00:02.313Z,1.75
2022-11-16T13:05:02.115Z,1.35
2022-11-16T13:10:02.118Z,1.38
2022-11-16T13:15:02.012Z,1.50
2022-11-16T13:20:01.797Z,1.27
2022-11-16T13:25:02.871Z,1.17
2022-11-16T13:30:02.707Z,1.33
2022-11-16T13:35:02.527Z,1.30
2022-11-16T13:40:02.362Z,1.20
2022-11-16T13:45:06.415Z,1.20
2022-11-16T13:50:02.214Z,1.20
2022-11-16T13:55:02.051Z,1.20
2022-11-16T14:00:01.938Z,1.00
2022-11-16T14:05:02.740Z,1.15
2022-11-16T14:10:02.559Z,1.60
2022-11-16T14:15:03.739Z,1.52
2022-11-16T14:20:02.041Z,1.35
2022-11-16T14:25:01.848Z,1.35
2022-11-16T14:30:05.046Z,0.93
2022-11-16T14:35:02.494Z,1.17
2022-11-16T14:40:05.841Z,1.20
2022-11-16T14:45:05.396Z,1.13
2022-11-16T14:50:02.498Z,1.65
2022-11-16T14:55:02.350Z,1.10
2022-11-16T15:00:02.177Z,1.10
2022-11-16T15:05:01.981Z,1.00
2022-11-16T15:10:01.932Z,0.98
2022-11-16T15:15:02.896Z,1.15
2022-11-16T15:20:02.818Z,1.13
2022-11-16T15:25:02.760Z,1.15
2022-11-16T15:30:02.661Z,1.08
2022-11-16T15:35:05.446Z,1.10
2022-11-16T15:40:02.648Z,1.40
2022-11-16T15:45:02.570Z,1.10
2022-11-16T15:50:02.375Z,1.17
2022-11-16T15:55:02.107Z,1.40
2022-11-16T16:00:01.967Z,1.35
2022-11-16T16:05:01.965Z,1.77
2022-11-16T16:10:01.785Z,1.30
2022-11-16T16:15:02.563Z,1.50
2022-11-16T16:20:02.575Z,1.50
2022-11-16T16:25:02.549Z,1.65
2022-11-16T16:30:02.551Z,1.60
2022-11-16T16:35:02.406Z,1.60
2022-11-16T16:40:02.365Z,1.83
2022-11-16T16:45:02.274Z,1.67
2022-11-16T16:50:02.210Z,1.90
2022-11-16T16:55:02.135Z,2.13
2022-11-16T17:00:02.019Z,1.88
2022-11-16T17:05:01.928Z,2.60
2022-11-16T17:10:02.703Z,4.03
2022-11-16T17:15:02.443Z,3.10
2022-11-16T17:20:02.407Z,2.55
2022-11-16T17:25:02.229Z,2.42
2022-11-16T17:30:02.088Z,2.30
2022-11-16T17:35:01.847Z,1.85
2022-11-16T17:40:02.612Z,2.60
2022-11-16T17:45:02.442Z,2.17
2022-11-16T17:50:02.349Z,1.90
2022-11-16T17:55:02.193Z,1.48
2022-11-16T18:00:02.338Z,1.40
2022-11-16T18:05:02.293Z,1.63
2022-11-16T18:10:02.202Z,1.50
2022-11-16T18:15:26.921Z,1.80
2022-11-16T18:20:02.694Z,1.85
2022-11-16T18:25:02.645Z,1.88
2022-11-16T18:30:02.627Z,1.98
2022-11-16T18:35:02.505Z,2.63
2022-11-16T18:40:02.292Z,1.70
2022-11-16T18:45:02.144Z,2.10
2022-11-16T18:50:01.937Z,2.65
2022-11-16T18:55:02.789Z,2.45
2022-11-16T19:00:02.532Z,2.05
2022-11-16T19:05:02.445Z,2.30
2022-11-16T19:10:02.298Z,1.75
2022-11-16T19:15:02.111Z,2.03
2022-11-16T19:20:01.951Z,1.88
2022-11-16T19:25:05.676Z,2.30
2022-11-16T19:30:01.918Z,2.00
2022-11-16T19:35:02.772Z,1.83
2022-11-16T19:40:02.577Z,1.90
2022-11-16T19:45:02.436Z,2.20
2022-11-16T19:50:02.295Z,1.90
2022-11-16T19:55:02.080Z,2.22
2022-11-16T20:00:01.927Z,2.53
2022-11-16T20:05:02.870Z,2.67
2022-11-16T20:10:02.659Z,2.10
2022-11-16T20:15:02.522Z,2.20
2022-11-16T20:20:02.374Z,2.20
2022-11-16T20:25:02.342Z,2.03
2022-11-16T20:30:07.957Z,2.33
2022-11-16T20:35:02.251Z,2.40
2022-11-16T20:40:02.278Z,2.38
2022-11-16T20:45:02.188Z,2.45
2022-11-16T20:50:02.160Z,2.10
2022-11-16T20:55:02.111Z,2.60
2022-11-16T21:00:02.131Z,2.13
2022-11-16T21:05:02.046Z,2.47
2022-11-16T21:10:01.897Z,2.70
2022-11-16T21:15:02.722Z,2.20
2022-11-16T21:20:25.207Z,2.40
2022-11-16T21:25:02.511Z,2.40
2022-11-16T21:30:02.330Z,2.88
2022-11-16T21:35:02.097Z,2.50
2022-11-16T21:40:01.926Z,2.92
2022-11-16T21:45:02.707Z,2.40
2022-11-16T21:50:30.600Z,2.90
2022-11-16T21:55:02.248Z,2.40
2022-11-16T22:00:02.154Z,2.17
2022-11-16T22:05:14.804Z,2.60
2022-11-16T22:10:08.515Z,2.28
2022-11-16T22:15:08.190Z,2.67
2022-11-16T22:20:07.960Z,2.20
2022-11-16T22:25:07.680Z,1.98
2022-11-16T22:30:08.633Z,2.85
2022-11-16T22:35:08.402Z,2.40
2022-11-16T22:40:08.119Z,2.05
2022-11-16T22:45:07.824Z,2.42
2022-11-16T22:50:08.541Z,2.47
2022-11-16T22:55:08.258Z,2.40
2022-11-16T23:00:07.999Z,2.08
2022-11-16T23:05:07.738Z,2.42
2022-11-16T23:10:08.460Z,2.40
2022-11-16T23:15:08.173Z,2.08
2022-11-16T23:20:09.315Z,2.17
2022-11-16T23:25:17.686Z,0
2022-11-16T23:30:12.532Z,2.40
2022-11-16T23:35:07.939Z,2.10
2022-11-16T23:40:07.685Z,1.98
2022-11-16T23:45:08.370Z,1.80
2022-11-16T23:50:08.087Z,2.30
2022-11-16T23:55:07.810Z,1.90
